sensor_id;sensor_type;location;lat;lon;timestamp;pressure;altitude;pressure_sealevel;temperature;humidity
37068;BME280;22982;42.848;25.468;2023-01-29T00:04:36;96327.34;;;0.21;100.00
37068;BME280;22982;42.848;25.468;2023-01-29T00:09:38;96327.31;;;0.23;100.00
37068;BME280;22982;42.848;25.468;2023-01-29T00:14:40;96320.31;;;0.29;100.00
37068;BME280;22982;42.848;25.468;2023-01-29T00:19:43;96343.19;;;0.46;100.00
37068;BME280;22982;42.848;25.468;2023-01-29T00:24:45;96342.16;;;0.56;100.00
37068;BME280;22982;42.848;25.468;2023-01-29T00:29:47;96315.75;;;0.42;100.00
37068;BME280;22982;42.848;25.468;2023-01-29T00:35:10;96341.44;;;0.48;100.00
37068;BME280;22982;42.848;25.468;2023-01-29T00:40:12;96338.41;;;0.26;100.00
37068;BME280;22982;42.848;25.468;2023-01-29T00:45:15;96345.69;;;0.51;100.00
37068;BME280;22982;42.848;25.468;2023-01-29T00:50:19;96338.94;;;0.45;100.00
37068;BME280;22982;42.848;25.468;2023-01-29T00:55:22;96324.06;;;0.13;100.00
37068;BME280;22982;42.848;25.468;2023-01-29T01:00:42;96356.34;;;0.32;100.00
37068;BME280;22982;42.848;25.468;2023-01-29T01:05:45;96336.59;;;0.31;100.00
37068;BME280;22982;42.848;25.468;2023-01-29T01:10:57;96345.28;;;0.27;100.00
37068;BME280;22982;42.848;25.468;2023-01-29T01:16:00;96332.28;;;0.32;100.00
37068;BME280;22982;42.848;25.468;2023-01-29T01:21:02;96353.63;;;0.40;100.00
37068;BME280;22982;42.848;25.468;2023-01-29T01:26:08;96341.34;;;0.53;100.00
37068;BME280;22982;42.848;25.468;2023-01-29T01:31:12;96364.63;;;0.50;100.00
37068;BME280;22982;42.848;25.468;2023-01-29T01:36:15;96331.59;;;0.24;100.00
37068;BME280;22982;42.848;25.468;2023-01-29T01:41:20;96361.25;;;0.46;100.00
37068;BME280;22982;42.848;25.468;2023-01-29T01:46:25;96343.63;;;0.23;100.00
37068;BME280;22982;42.848;25.468;2023-01-29T01:51:31;96333.25;;;0.26;100.00
37068;BME280;22982;42.848;25.468;2023-01-29T01:56:39;96337.41;;;0.35;100.00
37068;BME280;22982;42.848;25.468;2023-01-29T02:01:46;96321.91;;;0.35;100.00
37068;BME280;22982;42.848;25.468;2023-01-29T02:06:52;96322.94;;;0.26;100.00
37068;BME280;22982;42.848;25.468;2023-01-29T02:12:15;96349.31;;;0.41;100.00
37068;BME280;22982;42.848;25.468;2023-01-29T02:17:18;96326.56;;;0.16;100.00
37068;BME280;22982;42.848;25.468;2023-01-29T02:32:59;96339.66;;;0.05;100.00
37068;BME280;22982;42.848;25.468;2023-01-29T02:43:23;96373.06;;;0.13;100.00
37068;BME280;22982;42.848;25.468;2023-01-29T02:48:42;96370.31;;;0.21;100.00
37068;BME280;22982;42.848;25.468;2023-01-29T02:59:01;96377.34;;;0.12;100.00
37068;BME280;22982;42.848;25.468;2023-01-29T03:04:13;96363.53;;;0.16;100.00
37068;BME280;22982;42.848;25.468;2023-01-29T03:09:25;96365.78;;;0.33;100.00
37068;BME280;22982;42.848;25.468;2023-01-29T03:14:36;96356.88;;;0.03;100.00
37068;BME280;22982;42.848;25.468;2023-01-29T03:20:01;96372.47;;;-0.05;100.00
37068;BME280;22982;42.848;25.468;2023-01-29T03:25:08;96384.16;;;0.16;100.00
37068;BME280;22982;42.848;25.468;2023-01-29T03:30:33;96366.94;;;0.18;100.00
37068;BME280;22982;42.848;25.468;2023-01-29T03:36:15;96374.44;;;0.31;100.00
37068;BME280;22982;42.848;25.468;2023-01-29T03:41:29;96378.94;;;0.19;100.00
37068;BME280;22982;42.848;25.468;2023-01-29T03:52:03;96390.97;;;0.19;100.00
37068;BME280;22982;42.848;25.468;2023-01-29T03:57:23;96379.81;;;0.20;100.00
37068;BME280;22982;42.848;25.468;2023-01-29T04:02:35;96389.19;;;0.24;100.00
37068;BME280;22982;42.848;25.468;2023-01-29T04:07:44;96374.69;;;0.17;100.00
37068;BME280;22982;42.848;25.468;2023-01-29T04:12:58;96358.66;;;-0.01;100.00
37068;BME280;22982;42.848;25.468;2023-01-29T04:18:03;96398.72;;;0.19;100.00
37068;BME280;22982;42.848;25.468;2023-01-29T04:23:38;96398.06;;;0.06;100.00
37068;BME280;22982;42.848;25.468;2023-01-29T04:34:32;96407.38;;;0.15;100.00
37068;BME280;22982;42.848;25.468;2023-01-29T04:45:15;96408.06;;;0.25;100.00
37068;BME280;22982;42.848;25.468;2023-01-29T04:50:45;96413.22;;;0.25;100.00
37068;BME280;22982;42.848;25.468;2023-01-29T05:00:58;96402.47;;;-0.01;100.00
37068;BME280;22982;42.848;25.468;2023-01-29T05:06:03;96430.28;;;0.32;100.00
37068;BME280;22982;42.848;25.468;2023-01-29T05:11:06;96404.69;;;0.21;100.00
37068;BME280;22982;42.848;25.468;2023-01-29T05:16:16;96410.78;;;0.18;100.00
37068;BME280;22982;42.848;25.468;2023-01-29T05:21:20;96425.34;;;0.19;100.00
37068;BME280;22982;42.848;25.468;2023-01-29T05:26:24;96428.66;;;0.28;100.00
37068;BME280;22982;42.848;25.468;2023-01-29T05:31:45;96418.50;;;0.18;100.00
37068;BME280;22982;42.848;25.468;2023-01-29T05:36:47;96427.06;;;0.21;100.00
37068;BME280;22982;42.848;25.468;2023-01-29T05:41:50;96446.59;;;0.34;100.00
37068;BME280;22982;42.848;25.468;2023-01-29T05:46:52;96445.88;;;0.26;100.00
37068;BME280;22982;42.848;25.468;2023-01-29T05:51:54;96461.28;;;0.29;100.00
37068;BME280;22982;42.848;25.468;2023-01-29T05:56:57;96450.16;;;0.25;100.00
37068;BME280;22982;42.848;25.468;2023-01-29T06:01:59;96451.25;;;0.13;100.00
37068;BME280;22982;42.848;25.468;2023-01-29T06:07:01;96459.66;;;0.25;100.00
37068;BME280;22982;42.848;25.468;2023-01-29T06:12:04;96462.97;;;0.33;100.00
37068;BME280;22982;42.848;25.468;2023-01-29T06:17:07;96465.63;;;0.27;100.00
37068;BME280;22982;42.848;25.468;2023-01-29T06:22:09;96476.75;;;0.30;100.00
37068;BME280;22982;42.848;25.468;2023-01-29T06:27:11;96474.25;;;0.27;100.00
37068;BME280;22982;42.848;25.468;2023-01-29T06:32:14;96498.03;;;0.43;100.00
37068;BME280;22982;42.848;25.468;2023-01-29T06:37:16;96487.81;;;0.37;100.00
37068;BME280;22982;42.848;25.468;2023-01-29T06:42:18;96491.22;;;0.39;100.00
37068;BME280;22982;42.848;25.468;2023-01-29T06:47:22;96508.91;;;0.61;100.00
37068;BME280;22982;42.848;25.468;2023-01-29T06:52:24;96501.97;;;0.64;100.00
37068;BME280;22982;42.848;25.468;2023-01-29T06:57:29;96496.66;;;0.73;100.00
37068;BME280;22982;42.848;25.468;2023-01-29T07:02:32;96508.09;;;0.59;100.00
37068;BME280;22982;42.848;25.468;2023-01-29T07:07:34;96513.97;;;0.67;100.00
37068;BME280;22982;42.848;25.468;2023-01-29T07:12:37;96529.19;;;0.82;100.00
37068;BME280;22982;42.848;25.468;2023-01-29T07:17:39;96531.13;;;0.71;100.00
37068;BME280;22982;42.848;25.468;2023-01-29T07:22:42;96515.81;;;0.62;100.00
37068;BME280;22982;42.848;25.468;2023-01-29T07:27:44;96526.84;;;0.68;100.00
37068;BME280;22982;42.848;25.468;2023-01-29T07:32:46;96537.13;;;0.71;100.00
37068;BME280;22982;42.848;25.468;2023-01-29T07:37:49;96510.69;;;0.59;100.00
37068;BME280;22982;42.848;25.468;2023-01-29T07:42:57;96548.81;;;0.92;100.00
37068;BME280;22982;42.848;25.468;2023-01-29T07:48:01;96536.19;;;0.75;100.00
37068;BME280;22982;42.848;25.468;2023-01-29T07:53:06;96555.78;;;0.89;100.00
37068;BME280;22982;42.848;25.468;2023-01-29T07:58:08;96539.72;;;0.70;100.00
37068;BME280;22982;42.848;25.468;2023-01-29T08:03:16;96569.69;;;0.80;100.00
37068;BME280;22982;42.848;25.468;2023-01-29T08:08:18;96579.03;;;0.87;100.00
37068;BME280;22982;42.848;25.468;2023-01-29T08:13:20;96585.03;;;0.88;100.00
37068;BME280;22982;42.848;25.468;2023-01-29T08:18:23;96562.69;;;0.87;100.00
37068;BME280;22982;42.848;25.468;2023-01-29T08:23:25;96569.09;;;0.63;100.00
37068;BME280;22982;42.848;25.468;2023-01-29T08:28:27;96565.38;;;0.79;100.00
37068;BME280;22982;42.848;25.468;2023-01-29T08:33:30;96568.16;;;1.18;100.00
37068;BME280;22982;42.848;25.468;2023-01-29T08:38:41;96580.81;;;1.32;100.00
37068;BME280;22982;42.848;25.468;2023-01-29T08:43:43;96578.53;;;1.15;100.00
37068;BME280;22982;42.848;25.468;2023-01-29T08:48:47;96593.19;;;1.13;100.00
37068;BME280;22982;42.848;25.468;2023-01-29T08:53:49;96611.03;;;1.27;100.00
37068;BME280;22982;42.848;25.468;2023-01-29T08:58:52;96588.09;;;1.08;100.00
37068;BME280;22982;42.848;25.468;2023-01-29T09:03:54;96557.91;;;1.12;100.00
37068;BME280;22982;42.848;25.468;2023-01-29T09:08:59;96602.16;;;1.42;100.00
37068;BME280;22982;42.848;25.468;2023-01-29T09:14:02;96572.09;;;0.89;100.00
37068;BME280;22982;42.848;25.468;2023-01-29T09:19:04;96590.50;;;1.19;100.00
37068;BME280;22982;42.848;25.468;2023-01-29T09:24:06;96562.19;;;1.14;100.00
37068;BME280;22982;42.848;25.468;2023-01-29T09:29:09;96589.09;;;1.48;100.00
37068;BME280;22982;42.848;25.468;2023-01-29T09:34:11;96587.66;;;1.34;100.00
37068;BME280;22982;42.848;25.468;2023-01-29T09:39:14;96582.25;;;1.47;100.00
37068;BME280;22982;42.848;25.468;2023-01-29T09:55:27;96564.22;;;1.44;100.00
37068;BME280;22982;42.848;25.468;2023-01-29T10:00:42;96547.56;;;1.57;100.00
37068;BME280;22982;42.848;25.468;2023-01-29T10:11:28;96551.13;;;1.51;100.00
37068;BME280;22982;42.848;25.468;2023-01-29T10:27:53;96541.56;;;1.57;100.00
37068;BME280;22982;42.848;25.468;2023-01-29T10:33:02;96514.19;;;1.03;100.00
37068;BME280;22982;42.848;25.468;2023-01-29T10:43:21;96557.50;;;1.33;100.00
37068;BME280;22982;42.848;25.468;2023-01-29T10:48:38;96552.34;;;1.33;100.00
37068;BME280;22982;42.848;25.468;2023-01-29T10:53:56;96550.03;;;1.63;100.00
37068;BME280;22982;42.848;25.468;2023-01-29T10:59:27;96542.28;;;1.63;100.00
37068;BME280;22982;42.848;25.468;2023-01-29T11:04:34;96474.25;;;1.19;100.00
37068;BME280;22982;42.848;25.468;2023-01-29T11:09:54;96518.09;;;1.24;100.00
37068;BME280;22982;42.848;25.468;2023-01-29T11:20:29;96517.41;;;1.59;100.00
37068;BME280;22982;42.848;25.468;2023-01-29T11:25:32;96484.66;;;1.58;100.00
37068;BME280;22982;42.848;25.468;2023-01-29T11:30:37;96508.03;;;1.94;100.00
37068;BME280;22982;42.848;25.468;2023-01-29T11:35:39;96456.28;;;1.55;100.00
37068;BME280;22982;42.848;25.468;2023-01-29T11:40:43;96481.44;;;1.87;100.00
37068;BME280;22982;42.848;25.468;2023-01-29T11:45:49;96438.97;;;1.60;100.00
37068;BME280;22982;42.848;25.468;2023-01-29T11:50:57;96476.44;;;1.80;100.00
37068;BME280;22982;42.848;25.468;2023-01-29T12:01:32;96463.78;;;1.67;100.00
37068;BME280;22982;42.848;25.468;2023-01-29T12:06:41;96465.50;;;1.68;100.00
37068;BME280;22982;42.848;25.468;2023-01-29T12:11:45;96496.88;;;1.90;100.00
37068;BME280;22982;42.848;25.468;2023-01-29T12:16:58;96486.00;;;1.76;100.00
37068;BME280;22982;42.848;25.468;2023-01-29T12:22:10;96496.38;;;1.75;100.00
37068;BME280;22982;42.848;25.468;2023-01-29T12:32:47;96471.31;;;1.38;100.00
37068;BME280;22982;42.848;25.468;2023-01-29T12:43:04;96488.50;;;1.39;100.00
37068;BME280;22982;42.848;25.468;2023-01-29T12:48:12;96500.97;;;1.62;100.00
37068;BME280;22982;42.848;25.468;2023-01-29T12:53:32;96500.19;;;1.58;100.00
37068;BME280;22982;42.848;25.468;2023-01-29T12:58:42;96499.44;;;1.51;100.00
37068;BME280;22982;42.848;25.468;2023-01-29T13:08:51;96464.28;;;1.85;100.00
37068;BME280;22982;42.848;25.468;2023-01-29T13:14:00;96502.72;;;2.36;100.00
37068;BME280;22982;42.848;25.468;2023-01-29T13:19:33;96451.59;;;2.12;100.00
37068;BME280;22982;42.848;25.468;2023-01-29T13:24:41;96492.28;;;2.03;100.00
37068;BME280;22982;42.848;25.468;2023-01-29T13:29:51;96490.91;;;1.88;100.00
37068;BME280;22982;42.848;25.468;2023-01-29T13:34:56;96476.03;;;1.59;100.00
37068;BME280;22982;42.848;25.468;2023-01-29T13:40:04;96483.81;;;1.58;100.00
37068;BME280;22982;42.848;25.468;2023-01-29T13:45:20;96476.16;;;1.53;100.00
37068;BME280;22982;42.848;25.468;2023-01-29T13:50:44;96459.00;;;1.50;100.00
37068;BME280;22982;42.848;25.468;2023-01-29T13:55:47;96509.00;;;2.62;100.00
37068;BME280;22982;42.848;25.468;2023-01-29T14:00:49;96502.09;;;2.62;100.00
37068;BME280;22982;42.848;25.468;2023-01-29T14:05:59;96531.44;;;2.96;100.00
37068;BME280;22982;42.848;25.468;2023-01-29T14:31:40;96504.19;;;1.71;100.00
37068;BME280;22982;42.848;25.468;2023-01-29T14:36:44;96531.53;;;1.83;100.00
37068;BME280;22982;42.848;25.468;2023-01-29T14:41:49;96526.16;;;1.52;100.00
37068;BME280;22982;42.848;25.468;2023-01-29T14:46:52;96503.25;;;1.33;100.00
37068;BME280;22982;42.848;25.468;2023-01-29T14:51:55;96544.72;;;1.27;100.00
37068;BME280;22982;42.848;25.468;2023-01-29T14:57:03;96537.75;;;1.31;100.00
37068;BME280;22982;42.848;25.468;2023-01-29T15:02:29;96502.06;;;1.06;100.00
37068;BME280;22982;42.848;25.468;2023-01-29T15:07:43;96540.28;;;1.36;100.00
37068;BME280;22982;42.848;25.468;2023-01-29T15:18:37;96552.75;;;1.57;100.00
37068;BME280;22982;42.848;25.468;2023-01-29T15:23:41;96546.16;;;1.41;100.00
37068;BME280;22982;42.848;25.468;2023-01-29T15:28:59;96559.25;;;1.33;100.00
37068;BME280;22982;42.848;25.468;2023-01-29T15:34:06;96571.75;;;1.55;100.00
37068;BME280;22982;42.848;25.468;2023-01-29T15:44:22;96524.38;;;1.10;100.00
37068;BME280;22982;42.848;25.468;2023-01-29T15:49:33;96579.22;;;1.25;100.00
37068;BME280;22982;42.848;25.468;2023-01-29T15:54:37;96551.75;;;1.19;100.00
37068;BME280;22982;42.848;25.468;2023-01-29T15:59:43;96586.47;;;1.51;100.00
37068;BME280;22982;42.848;25.468;2023-01-29T16:04:46;96543.91;;;1.25;100.00
37068;BME280;22982;42.848;25.468;2023-01-29T16:09:49;96567.91;;;1.30;100.00
37068;BME280;22982;42.848;25.468;2023-01-29T16:14:53;96571.31;;;1.32;100.00
37068;BME280;22982;42.848;25.468;2023-01-29T16:19:58;96561.50;;;1.50;100.00
37068;BME280;22982;42.848;25.468;2023-01-29T16:25:03;96574.38;;;1.53;100.00
37068;BME280;22982;42.848;25.468;2023-01-29T16:30:07;96579.81;;;1.39;100.00
37068;BME280;22982;42.848;25.468;2023-01-29T16:35:16;96561.16;;;1.23;100.00
37068;BME280;22982;42.848;25.468;2023-01-29T16:40:31;96569.94;;;1.14;100.00
37068;BME280;22982;42.848;25.468;2023-01-29T16:45:34;96573.00;;;1.33;100.00
37068;BME280;22982;42.848;25.468;2023-01-29T16:50:37;96571.72;;;1.11;100.00
37068;BME280;22982;42.848;25.468;2023-01-29T16:56:01;96557.88;;;1.15;100.00
37068;BME280;22982;42.848;25.468;2023-01-29T17:01:09;96579.03;;;1.36;100.00
37068;BME280;22982;42.848;25.468;2023-01-29T17:20:26;96525.75;;;1.72;100.00
37068;BME280;22982;42.848;25.468;2023-01-29T17:25:29;96539.50;;;1.72;100.00
37068;BME280;22982;42.848;25.468;2023-01-29T17:30:33;96541.59;;;1.55;100.00
37068;BME280;22982;42.848;25.468;2023-01-29T17:35:39;96568.97;;;1.65;100.00
37068;BME280;22982;42.848;25.468;2023-01-29T17:40:53;96555.88;;;1.71;100.00
37068;BME280;22982;42.848;25.468;2023-01-29T17:45:57;96577.53;;;1.67;100.00
37068;BME280;22982;42.848;25.468;2023-01-29T17:51:02;96523.84;;;1.38;100.00
37068;BME280;22982;42.848;25.468;2023-01-29T17:56:08;96514.34;;;1.39;100.00
37068;BME280;22982;42.848;25.468;2023-01-29T18:01:12;96542.50;;;1.09;100.00
37068;BME280;22982;42.848;25.468;2023-01-29T18:06:26;96554.88;;;1.37;100.00
37068;BME280;22982;42.848;25.468;2023-01-29T18:11:30;96508.22;;;0.99;100.00
37068;BME280;22982;42.848;25.468;2023-01-29T18:16:33;96548.16;;;1.28;100.00
37068;BME280;22982;42.848;25.468;2023-01-29T18:21:39;96542.84;;;1.36;100.00
37068;BME280;22982;42.848;25.468;2023-01-29T18:26:42;96506.34;;;1.09;100.00
37068;BME280;22982;42.848;25.468;2023-01-29T18:31:47;96528.63;;;1.13;100.00
37068;BME280;22982;42.848;25.468;2023-01-29T18:36:50;96542.66;;;1.45;100.00
37068;BME280;22982;42.848;25.468;2023-01-29T18:41:52;96538.91;;;1.16;100.00
37068;BME280;22982;42.848;25.468;2023-01-29T18:46:55;96539.50;;;1.30;100.00
37068;BME280;22982;42.848;25.468;2023-01-29T18:51:57;96558.25;;;1.40;100.00
37068;BME280;22982;42.848;25.468;2023-01-29T18:57:00;96557.06;;;1.11;100.00
37068;BME280;22982;42.848;25.468;2023-01-29T19:02:22;96571.97;;;1.44;100.00
37068;BME280;22982;42.848;25.468;2023-01-29T19:07:25;96566.06;;;1.37;100.00
37068;BME280;22982;42.848;25.468;2023-01-29T19:12:27;96528.63;;;1.13;100.00
37068;BME280;22982;42.848;25.468;2023-01-29T19:17:30;96568.78;;;1.29;100.00
37068;BME280;22982;42.848;25.468;2023-01-29T19:22:32;96576.47;;;1.34;100.00
37068;BME280;22982;42.848;25.468;2023-01-29T19:27:34;96558.25;;;1.40;100.00
37068;BME280;22982;42.848;25.468;2023-01-29T19:32:38;96548.16;;;1.28;100.00
37068;BME280;22982;42.848;25.468;2023-01-29T19:37:40;96552.41;;;1.30;100.00
37068;BME280;22982;42.848;25.468;2023-01-29T19:42:43;96510.47;;;1.18;100.00
37068;BME280;22982;42.848;25.468;2023-01-29T19:47:45;96560.75;;;1.45;100.00
37068;BME280;22982;42.848;25.468;2023-01-29T19:52:48;96572.59;;;1.55;100.00
37068;BME280;22982;42.848;25.468;2023-01-29T19:57:53;96570.97;;;1.51;100.00
37068;BME280;22982;42.848;25.468;2023-01-29T20:02:56;96539.88;;;1.10;100.00
37068;BME280;22982;42.848;25.468;2023-01-29T20:07:58;96547.31;;;1.27;100.00
37068;BME280;22982;42.848;25.468;2023-01-29T20:13:01;96545.13;;;1.51;100.00
37068;BME280;22982;42.848;25.468;2023-01-29T20:18:03;96511.13;;;1.29;100.00
37068;BME280;22982;42.848;25.468;2023-01-29T20:23:13;96546.78;;;1.53;100.00
37068;BME280;22982;42.848;25.468;2023-01-29T20:28:39;96559.44;;;1.67;100.00
37068;BME280;22982;42.848;25.468;2023-01-29T20:33:42;96518.53;;;1.44;100.00
37068;BME280;22982;42.848;25.468;2023-01-29T20:38:45;96536.75;;;1.40;100.00
37068;BME280;22982;42.848;25.468;2023-01-29T20:43:48;96523.09;;;1.31;100.00
37068;BME280;22982;42.848;25.468;2023-01-29T20:48:51;96559.59;;;1.60;100.00
37068;BME280;22982;42.848;25.468;2023-01-29T20:53:55;96560.28;;;1.24;100.00
37068;BME280;22982;42.848;25.468;2023-01-29T20:59:00;96567.13;;;1.27;100.00
37068;BME280;22982;42.848;25.468;2023-01-29T21:04:03;96543.56;;;0.95;100.00
37068;BME280;22982;42.848;25.468;2023-01-29T21:09:05;96564.78;;;1.13;100.00
37068;BME280;22982;42.848;25.468;2023-01-29T21:14:07;96576.59;;;1.26;100.00
37068;BME280;22982;42.848;25.468;2023-01-29T21:19:12;96573.50;;;1.07;100.00
37068;BME280;22982;42.848;25.468;2023-01-29T21:24:15;96549.44;;;1.05;100.00
37068;BME280;22982;42.848;25.468;2023-01-29T21:29:19;96548.00;;;0.90;100.00
37068;BME280;22982;42.848;25.468;2023-01-29T21:34:22;96565.06;;;0.98;100.00
37068;BME280;22982;42.848;25.468;2023-01-29T21:39:24;96564.38;;;0.88;100.00
37068;BME280;22982;42.848;25.468;2023-01-29T21:44:27;96567.63;;;0.98;100.00
37068;BME280;22982;42.848;25.468;2023-01-29T21:49:29;96561.47;;;1.05;100.00
37068;BME280;22982;42.848;25.468;2023-01-29T21:54:32;96571.22;;;0.90;100.00
37068;BME280;22982;42.848;25.468;2023-01-29T21:59:36;96568.69;;;0.87;100.00
37068;BME280;22982;42.848;25.468;2023-01-29T22:04:39;96574.69;;;0.88;100.00
37068;BME280;22982;42.848;25.468;2023-01-29T22:09:41;96535.09;;;0.37;100.00
37068;BME280;22982;42.848;25.468;2023-01-29T22:14:44;96545.38;;;0.41;100.00
37068;BME280;22982;42.848;25.468;2023-01-29T22:19:48;96564.41;;;0.32;100.00
37068;BME280;22982;42.848;25.468;2023-01-29T22:24:50;96522.66;;;0.08;100.00
37068;BME280;22982;42.848;25.468;2023-01-29T22:29:53;96550.97;;;0.11;100.00
37068;BME280;22982;42.848;25.468;2023-01-29T22:34:55;96523.41;;;0.16;100.00
37068;BME280;22982;42.848;25.468;2023-01-29T22:39:57;96517.44;;;0.13;100.00
37068;BME280;22982;42.848;25.468;2023-01-29T22:45:00;96523.50;;;0.07;100.00
37068;BME280;22982;42.848;25.468;2023-01-29T22:50:03;96551.06;;;0.05;100.00
37068;BME280;22982;42.848;25.468;2023-01-29T22:55:08;96521.16;;;-0.07;100.00
37068;BME280;22982;42.848;25.468;2023-01-29T23:00:11;96534.59;;;0.14;100.00
37068;BME280;22982;42.848;25.468;2023-01-29T23:05:14;96532.03;;;0.14;100.00
37068;BME280;22982;42.848;25.468;2023-01-29T23:10:19;96516.13;;;-0.16;100.00
37068;BME280;22982;42.848;25.468;2023-01-29T23:15:21;96518.78;;;-0.21;100.00
37068;BME280;22982;42.848;25.468;2023-01-29T23:20:24;96538.28;;;-0.03;100.00
37068;BME280;22982;42.848;25.468;2023-01-29T23:25:26;96503.53;;;-0.36;100.00
37068;BME280;22982;42.848;25.468;2023-01-29T23:30:48;96542.28;;;-0.45;100.00
37068;BME280;22982;42.848;25.468;2023-01-29T23:35:53;96507.06;;;-0.43;100.00
37068;BME280;22982;42.848;25.468;2023-01-29T23:40:55;96499.09;;;-0.26;100.00
37068;BME280;22982;42.848;25.468;2023-01-29T23:45:58;96515.41;;;-0.27;100.00
37068;BME280;22982;42.848;25.468;2023-01-29T23:51:01;96496.94;;;-0.57;100.00
37068;BME280;22982;42.848;25.468;2023-01-29T23:56:04;96538.53;;;-0.20;100.00
